Airfield :
LOGIN :

Register | Disclaimer

   EN    FR    IT 

 










Legend :    VFR   Marginal VFR   IFR   Intensive IFR   Very Intensive IFR
Visi :
Ceiling :
>= 8 km
>= 3000ft
5 to 8 km
1000 to 3000 ft
1500m to 5 km
500 to 1000 ft
800 to 1500m
200 to 500 ft
< 800m
< 200 ft
Symbols :   Thunderstorms  Fog  Heavy snow  Heavy precipitations  Wind > 20 kt
SIGMETs :     Misc.  Thunderstorms  Icing  Turbulence  Mountain Waves  Volcanic Ashes







- Airport Elevation : 2356 ft


LZTT - Poprad Tatry

CURRENT METAR :
  • 201530Z 04015KT 9999 FEW043 17/06 Q1022 NOSIG

EXPIRED METARs :
  • 201500Z 05015KT 9999 FEW043 17/06 Q1022 NOSIG
  • 201430Z 06014KT 9999 FEW043 SCT090 17/07 Q1022 NOSIG
  • 201400Z 06014KT 9999 SCT043 17/08 Q1022 NOSIG
  • 201330Z 06014KT 9999 FEW043 SCT090 16/07 Q1022 NOSIG
  • 201300Z 03014KT 9999 FEW043 SCT066 18/08 Q1022 NOSIG

TAF TAF LZTT
Valid from the 20 at 12:00 until the 21 at 12:00 UTC


201100Z 2012/2112 04008KT 9999 SCT045 SCT066
PROB30
TEMPO 2012/2017 04015KT -SHRA FEW050CB BKN055
BECMG 2020/2022 VRB02KT CAVOK
BECMG 2106/2108 05007KT 9999 SCT040 BKN070
No reported NOTAMs for that airfield.



MET'MAP, your aeronautical weather chart ! - Copyright ORBIFLY December 2007 - Disclaimer

ORBIFLY MET'MAP TEAM :

Programming & Development : Alexandra Zaïnal
Concept & Development : Baudouin d'Aumeries
Co-Development & Prog : Marc-Olivier Méhu
Technical & hardware support : Manuel Goepfert

Contact : metmap@orbifly.com




SOURCES & CREDITS :

   NOAA